Strona główna
Zdjęcia satelitarne 15-dni prognozyKlimatMeteorologia morska Cyklony Błyskawica LotniskoFAQ Gazetka O
Pogoda : Europa Afryka Ameryka Północna Ameryka Południowa Azja Australia-Oceania Inny
Języki Kontakt

Doncaster Sheffield, Anglia

Robin Hood

Szerokość geograficzna: 53-29N, Długość geograficzna: 001-00W, wysokość: 17 m


METAR: EGCN 010320Z 16005KT CAVOK 14/13 Q1009
short-TAF: EGCN 010200Z 0103/0112 20007KT 9999 FEW012 PROB40 TEMPO 0103/0108 8000 BKN008
long-TAF: brakujący

czas: 04:43 (03:43 UTC)

Aktualna obserwacja pogody

Raport powstał 23 minut temu, godzina 03:20 UTC  
Wiatr 05 kt od południowo-południowy wschód
Temperatura 14°C
Wilgotność 94%
Ciśnienie 1009 hPa
Widzialność 10 km lub więcej
Brak chmur poniżej 1500 m i brak chmur cumulonimbus

Jednostka miary

Prognoza

Raport powstał 1 godzina i 30 minut temu, godzina 02:13 UTC  
Prognoza ważna od 01 godzina 03 UTC do 01 godzina 12 UTC
Wiatr 07 kt od południowo-południowy zachód
Widzialność 10 km lub więcej
Mało chmury na wysokości 1200 ft
Prawdopodobieństwo 40% :
Przejściowo
od 01 godzina 03 UTC do 01 godzina 08 UTC
Widzialność 8000 m
Przerywane chmury na wysokości 800 ft
Informacje na tej stronie internetowej podlegają klauzuli o wyłączeniu odpowiedzialności
Pogoda : Europa Afryka Ameryka Północna Ameryka Południowa Azja Australia-Oceania Inny
Zdjęcia satelitarne 15-dni prognozyKlimatMeteorologia morska Cyklony Błyskawica LotniskoFAQ Języki Kontakt Gazetka O